sensor_id;sensor_type;location;lat;lon;timestamp;pressure;altitude;pressure_sealevel;temperature;humidity
12247;BME280;6186;52.022;4.692;2023-08-07T00:00:33;101488.19;;;14.97;100.00
12247;BME280;6186;52.022;4.692;2023-08-07T00:02:58;101486.47;;;14.96;100.00
12247;BME280;6186;52.022;4.692;2023-08-07T00:05:23;101494.47;;;14.95;100.00
12247;BME280;6186;52.022;4.692;2023-08-07T00:07:49;101491.78;;;14.96;100.00
12247;BME280;6186;52.022;4.692;2023-08-07T00:10:14;101486.56;;;14.93;100.00
12247;BME280;6186;52.022;4.692;2023-08-07T00:12:40;101504.97;;;14.98;100.00
12247;BME280;6186;52.022;4.692;2023-08-07T00:15:05;101503.19;;;14.98;100.00
12247;BME280;6186;52.022;4.692;2023-08-07T00:17:31;101496.09;;;14.99;100.00
12247;BME280;6186;52.022;4.692;2023-08-07T00:19:56;101493.44;;;14.99;100.00
12247;BME280;6186;52.022;4.692;2023-08-07T00:22:21;101498.72;;;15.00;100.00
12247;BME280;6186;52.022;4.692;2023-08-07T00:24:47;101502.19;;;15.02;100.00
12247;BME280;6186;52.022;4.692;2023-08-07T00:27:12;101495.00;;;15.04;100.00
12247;BME280;6186;52.022;4.692;2023-08-07T00:29:38;101498.53;;;15.05;100.00
12247;BME280;6186;52.022;4.692;2023-08-07T00:32:04;101509.09;;;15.06;100.00
12247;BME280;6186;52.022;4.692;2023-08-07T00:34:29;101495.88;;;15.05;100.00
12247;BME280;6186;52.022;4.692;2023-08-07T00:36:55;101489.69;;;15.06;100.00
12247;BME280;6186;52.022;4.692;2023-08-07T00:39:20;101493.91;;;15.12;100.00
12247;BME280;6186;52.022;4.692;2023-08-07T00:41:46;101500.88;;;15.14;100.00
12247;BME280;6186;52.022;4.692;2023-08-07T00:44:11;101507.06;;;15.15;100.00
12247;BME280;6186;52.022;4.692;2023-08-07T00:46:36;101518.53;;;15.15;100.00
12247;BME280;6186;52.022;4.692;2023-08-07T00:49:02;101516.91;;;15.11;100.00
12247;BME280;6186;52.022;4.692;2023-08-07T00:51:28;101518.88;;;15.04;100.00
12247;BME280;6186;52.022;4.692;2023-08-07T00:53:54;101526.13;;;14.99;100.00
12247;BME280;6186;52.022;4.692;2023-08-07T00:56:19;101525.41;;;14.94;100.00
12247;BME280;6186;52.022;4.692;2023-08-07T00:58:45;101519.34;;;14.91;100.00
12247;BME280;6186;52.022;4.692;2023-08-07T01:01:10;101521.13;;;14.90;100.00
12247;BME280;6186;52.022;4.692;2023-08-07T01:03:36;101516.72;;;14.89;100.00
12247;BME280;6186;52.022;4.692;2023-08-07T01:06:01;101517.75;;;14.85;100.00
12247;BME280;6186;52.022;4.692;2023-08-07T01:08:27;101525.66;;;14.87;100.00
12247;BME280;6186;52.022;4.692;2023-08-07T01:14:02;101531.03;;;14.84;100.00
12247;BME280;6186;52.022;4.692;2023-08-07T01:19:19;101527.44;;;14.86;100.00
12247;BME280;6186;52.022;4.692;2023-08-07T01:21:48;101528.38;;;14.84;100.00
12247;BME280;6186;52.022;4.692;2023-08-07T01:24:13;101517.78;;;14.84;100.00
12247;BME280;6186;52.022;4.692;2023-08-07T01:26:39;101522.19;;;14.85;100.00
12247;BME280;6186;52.022;4.692;2023-08-07T01:29:26;101516.94;;;14.83;100.00
12247;BME280;6186;52.022;4.692;2023-08-07T01:31:57;101522.25;;;14.83;100.00
12247;BME280;6186;52.022;4.692;2023-08-07T01:34:24;101523.97;;;14.84;100.00
12247;BME280;6186;52.022;4.692;2023-08-07T01:36:51;101508.25;;;14.78;100.00
12247;BME280;6186;52.022;4.692;2023-08-07T01:39:19;101526.66;;;14.83;100.00
12247;BME280;6186;52.022;4.692;2023-08-07T01:41:46;101511.72;;;14.80;100.00
12247;BME280;6186;52.022;4.692;2023-08-07T01:44:12;101522.31;;;14.80;100.00
12247;BME280;6186;52.022;4.692;2023-08-07T01:46:37;101520.56;;;14.81;100.00
12247;BME280;6186;52.022;4.692;2023-08-07T01:49:03;101518.81;;;14.80;100.00
12247;BME280;6186;52.022;4.692;2023-08-07T01:51:28;101526.81;;;14.78;100.00
12247;BME280;6186;52.022;4.692;2023-08-07T01:53:53;101529.47;;;14.78;100.00
12247;BME280;6186;52.022;4.692;2023-08-07T01:56:18;101517.25;;;14.73;100.00
12247;BME280;6186;52.022;4.692;2023-08-07T01:58:43;101521.50;;;14.78;100.00
12247;BME280;6186;52.022;4.692;2023-08-07T02:01:09;101525.91;;;14.79;100.00
12247;BME280;6186;52.022;4.692;2023-08-07T02:03:34;101523.25;;;14.79;100.00
12247;BME280;6186;52.022;4.692;2023-08-07T02:05:59;101525.78;;;14.82;100.00
12247;BME280;6186;52.022;4.692;2023-08-07T02:08:24;101532.03;;;14.81;100.00
12247;BME280;6186;52.022;4.692;2023-08-07T02:10:49;101531.09;;;14.82;100.00
12247;BME280;6186;52.022;4.692;2023-08-07T02:13:15;101528.38;;;14.84;100.00
12247;BME280;6186;52.022;4.692;2023-08-07T02:15:40;101516.97;;;14.82;100.00
12247;BME280;6186;52.022;4.692;2023-08-07T02:18:05;101509.06;;;14.80;100.00
12247;BME280;6186;52.022;4.692;2023-08-07T02:20:31;101522.13;;;14.86;100.00
12247;BME280;6186;52.022;4.692;2023-08-07T02:22:56;101523.88;;;14.87;100.00
12247;BME280;6186;52.022;4.692;2023-08-07T02:25:21;101525.59;;;14.88;100.00
12247;BME280;6186;52.022;4.692;2023-08-07T02:27:46;101523.88;;;14.87;100.00
12247;BME280;6186;52.022;4.692;2023-08-07T02:30:12;101519.44;;;14.88;100.00
12247;BME280;6186;52.022;4.692;2023-08-07T02:32:37;101519.44;;;14.88;100.00
12247;BME280;6186;52.022;4.692;2023-08-07T02:35:02;101527.25;;;14.92;100.00
12247;BME280;6186;52.022;4.692;2023-08-07T02:37:28;101527.25;;;14.92;100.00
12247;BME280;6186;52.022;4.692;2023-08-07T02:39:53;101524.47;;;14.95;100.00
12247;BME280;6186;52.022;4.692;2023-08-07T02:42:18;101525.31;;;14.97;100.00
12247;BME280;6186;52.022;4.692;2023-08-07T02:44:43;101528.06;;;14.94;100.00
12247;BME280;6186;52.022;4.692;2023-08-07T02:47:09;101524.41;;;14.98;100.00
12247;BME280;6186;52.022;4.692;2023-08-07T02:49:34;101534.03;;;15.01;100.00
12247;BME280;6186;52.022;4.692;2023-08-07T02:51:59;101534.00;;;15.02;100.00
12247;BME280;6186;52.022;4.692;2023-08-07T02:54:24;101537.44;;;15.04;100.00
12247;BME280;6186;52.022;4.692;2023-08-07T02:56:49;101540.06;;;15.06;100.00
12247;BME280;6186;52.022;4.692;2023-08-07T02:59:15;101521.53;;;15.04;100.00
12247;BME280;6186;52.022;4.692;2023-08-07T03:01:42;101532.13;;;15.04;100.00
12247;BME280;6186;52.022;4.692;2023-08-07T03:04:08;101530.59;;;14.97;100.00
12247;BME280;6186;52.022;4.692;2023-08-07T03:06:33;101531.53;;;14.96;100.00
12247;BME280;6186;52.022;4.692;2023-08-07T03:08:58;101537.91;;;14.91;100.00
12247;BME280;6186;52.022;4.692;2023-08-07T03:11:24;101532.59;;;14.91;100.00
12247;BME280;6186;52.022;4.692;2023-08-07T03:13:49;101529.06;;;14.90;100.00
12247;BME280;6186;52.022;4.692;2023-08-07T03:16:14;101538.91;;;14.87;100.00
12247;BME280;6186;52.022;4.692;2023-08-07T03:18:40;101536.09;;;14.91;100.00
12247;BME280;6186;52.022;4.692;2023-08-07T03:21:05;101543.16;;;14.92;100.00
12247;BME280;6186;52.022;4.692;2023-08-07T03:23:30;101534.28;;;14.93;100.00
12247;BME280;6186;52.022;4.692;2023-08-07T03:26:06;101532.44;;;14.95;100.00
12247;BME280;6186;52.022;4.692;2023-08-07T03:28:32;101525.50;;;14.91;100.00
12247;BME280;6186;52.022;4.692;2023-08-07T03:30:58;101525.31;;;14.97;100.00
12247;BME280;6186;52.022;4.692;2023-08-07T03:33:23;101526.06;;;15.01;100.00
12247;BME280;6186;52.022;4.692;2023-08-07T03:35:48;101528.69;;;15.02;100.00
12247;BME280;6186;52.022;4.692;2023-08-07T03:38:14;101533.06;;;15.03;100.00
12247;BME280;6186;52.022;4.692;2023-08-07T03:40:40;101531.22;;;15.05;100.00
12247;BME280;6186;52.022;4.692;2023-08-07T03:43:05;101528.59;;;15.05;100.00
12247;BME280;6186;52.022;4.692;2023-08-07T03:45:30;101535.59;;;15.06;100.00
12247;BME280;6186;52.022;4.692;2023-08-07T03:47:55;101517.22;;;15.02;100.00
12247;BME280;6186;52.022;4.692;2023-08-07T03:50:21;101525.13;;;15.03;100.00
12247;BME280;6186;52.022;4.692;2023-08-07T03:52:46;101526.69;;;15.09;100.00
12247;BME280;6186;52.022;4.692;2023-08-07T03:55:11;101531.94;;;15.10;100.00
12247;BME280;6186;52.022;4.692;2023-08-07T03:57:36;101539.91;;;15.10;100.00
12247;BME280;6186;52.022;4.692;2023-08-07T04:00:01;101529.25;;;15.12;100.00
12247;BME280;6186;52.022;4.692;2023-08-07T04:02:27;101535.41;;;15.13;100.00
12247;BME280;6186;52.022;4.692;2023-08-07T04:04:52;101537.16;;;15.14;100.00
12247;BME280;6186;52.022;4.692;2023-08-07T04:07:17;101531.88;;;15.14;100.00
12247;BME280;6186;52.022;4.692;2023-08-07T04:09:42;101528.38;;;15.12;100.00
12247;BME280;6186;52.022;4.692;2023-08-07T04:12:08;101530.16;;;15.11;100.00
12247;BME280;6186;52.022;4.692;2023-08-07T04:14:33;101528.38;;;15.12;100.00
12247;BME280;6186;52.022;4.692;2023-08-07T04:16:58;101535.41;;;15.13;100.00
12247;BME280;6186;52.022;4.692;2023-08-07T04:19:23;101526.63;;;15.12;100.00
12247;BME280;6186;52.022;4.692;2023-08-07T04:21:49;101529.25;;;15.12;100.00
12247;BME280;6186;52.022;4.692;2023-08-07T04:24:14;101533.69;;;15.12;100.00
12247;BME280;6186;52.022;4.692;2023-08-07T04:26:39;101528.38;;;15.12;100.00
12247;BME280;6186;52.022;4.692;2023-08-07T04:29:05;101540.72;;;15.13;100.00
12247;BME280;6186;52.022;4.692;2023-08-07T04:31:30;101541.59;;;15.13;100.00
12247;BME280;6186;52.022;4.692;2023-08-07T04:33:56;101552.16;;;15.15;100.00
12247;BME280;6186;52.022;4.692;2023-08-07T04:36:21;101560.09;;;15.15;100.00
12247;BME280;6186;52.022;4.692;2023-08-07T04:38:46;101547.78;;;15.14;100.00
12247;BME280;6186;52.022;4.692;2023-08-07T04:41:11;101558.47;;;15.10;100.00
12247;BME280;6186;52.022;4.692;2023-08-07T04:43:36;101560.28;;;15.08;100.00
12247;BME280;6186;52.022;4.692;2023-08-07T04:46:02;101559.44;;;15.08;100.00
12247;BME280;6186;52.022;4.692;2023-08-07T04:48:27;101554.97;;;15.08;100.00
12247;BME280;6186;52.022;4.692;2023-08-07T04:50:52;101561.22;;;15.07;100.00
12247;BME280;6186;52.022;4.692;2023-08-07T04:53:17;101558.56;;;15.07;100.00
12247;BME280;6186;52.022;4.692;2023-08-07T04:55:43;101570.06;;;15.08;100.00
12247;BME280;6186;52.022;4.692;2023-08-07T04:58:08;101569.25;;;15.04;100.00
12247;BME280;6186;52.022;4.692;2023-08-07T05:00:33;101571.81;;;15.07;100.00
12247;BME280;6186;52.022;4.692;2023-08-07T05:02:58;101576.19;;;15.10;100.00
12247;BME280;6186;52.022;4.692;2023-08-07T05:05:24;101574.38;;;15.10;100.00
12247;BME280;6186;52.022;4.692;2023-08-07T05:07:49;101576.19;;;15.08;100.00
12247;BME280;6186;52.022;4.692;2023-08-07T05:10:14;101580.56;;;15.11;100.00
12247;BME280;6186;52.022;4.692;2023-08-07T05:12:40;101584.09;;;15.12;100.00
12247;BME280;6186;52.022;4.692;2023-08-07T05:15:06;101591.09;;;15.13;100.00
12247;BME280;6186;52.022;4.692;2023-08-07T05:17:31;101609.63;;;15.14;100.00
12247;BME280;6186;52.022;4.692;2023-08-07T05:19:57;101613.09;;;15.16;100.00
12247;BME280;6186;52.022;4.692;2023-08-07T05:22:22;101599.00;;;15.14;100.00
12247;BME280;6186;52.022;4.692;2023-08-07T05:24:47;101596.53;;;15.09;100.00
12247;BME280;6186;52.022;4.692;2023-08-07T05:27:12;101601.06;;;15.04;100.00
12247;BME280;6186;52.022;4.692;2023-08-07T05:29:38;101599.47;;;15.00;100.00
12247;BME280;6186;52.022;4.692;2023-08-07T05:32:03;101602.13;;;14.99;100.00
12247;BME280;6186;52.022;4.692;2023-08-07T05:34:29;101601.38;;;14.95;100.00
12247;BME280;6186;52.022;4.692;2023-08-07T05:36:54;101605.78;;;14.96;100.00
12247;BME280;6186;52.022;4.692;2023-08-07T05:39:19;101597.91;;;14.93;100.00
12247;BME280;6186;52.022;4.692;2023-08-07T05:41:44;101609.31;;;14.95;100.00
12247;BME280;6186;52.022;4.692;2023-08-07T05:44:09;101598.72;;;14.95;100.00
12247;BME280;6186;52.022;4.692;2023-08-07T05:46:35;101610.91;;;15.01;100.00
12247;BME280;6186;52.022;4.692;2023-08-07T05:49:00;101616.97;;;15.04;100.00
12247;BME280;6186;52.022;4.692;2023-08-07T05:51:25;101611.69;;;15.04;100.00
12247;BME280;6186;52.022;4.692;2023-08-07T05:53:50;101617.88;;;15.05;100.00
12247;BME280;6186;52.022;4.692;2023-08-07T05:56:15;101620.38;;;15.09;100.00
12247;BME280;6186;52.022;4.692;2023-08-07T05:58:41;101622.09;;;15.10;100.00
12247;BME280;6186;52.022;4.692;2023-08-07T06:01:06;101622.09;;;15.12;100.00
12247;BME280;6186;52.022;4.692;2023-08-07T06:03:31;101634.47;;;15.12;100.00
12247;BME280;6186;52.022;4.692;2023-08-07T06:05:57;101645.03;;;15.13;100.00
12247;BME280;6186;52.022;4.692;2023-08-07T06:08:22;101647.72;;;15.12;100.00
12247;BME280;6186;52.022;4.692;2023-08-07T06:10:47;101653.09;;;15.08;100.00
12247;BME280;6186;52.022;4.692;2023-08-07T06:13:12;101657.69;;;15.03;100.00
12247;BME280;6186;52.022;4.692;2023-08-07T06:15:38;101648.09;;;14.99;100.00
12247;BME280;6186;52.022;4.692;2023-08-07T06:18:03;101639.41;;;14.94;100.00
12247;BME280;6186;52.022;4.692;2023-08-07T06:20:28;101642.28;;;14.87;100.00
12247;BME280;6186;52.022;4.692;2023-08-07T06:22:53;101636.22;;;14.83;100.00
12247;BME280;6186;52.022;4.692;2023-08-07T06:25:19;101648.72;;;14.80;100.00
12247;BME280;6186;52.022;4.692;2023-08-07T06:27:44;101649.56;;;14.80;100.00
12247;BME280;6186;52.022;4.692;2023-08-07T06:30:09;101658.38;;;14.81;100.00
12247;BME280;6186;52.022;4.692;2023-08-07T06:32:35;101658.25;;;14.85;100.00
12247;BME280;6186;52.022;4.692;2023-08-07T06:35:00;101656.22;;;14.93;100.00
12247;BME280;6186;52.022;4.692;2023-08-07T06:37:25;101661.34;;;14.99;100.00
12247;BME280;6186;52.022;4.692;2023-08-07T06:39:51;101667.38;;;15.04;100.00
12247;BME280;6186;52.022;4.692;2023-08-07T06:42:16;101666.38;;;15.08;100.00
12247;BME280;6186;52.022;4.692;2023-08-07T06:44:41;101667.13;;;15.14;100.00
12247;BME280;6186;52.022;4.692;2023-08-07T06:47:07;101669.75;;;15.14;100.00
12247;BME280;6186;52.022;4.692;2023-08-07T06:49:32;101663.69;;;15.10;100.00
12247;BME280;6186;52.022;4.692;2023-08-07T06:51:58;101659.34;;;15.07;100.00
12247;BME280;6186;52.022;4.692;2023-08-07T06:54:23;101655.09;;;15.02;100.00
12247;BME280;6186;52.022;4.692;2023-08-07T06:56:48;101666.41;;;15.07;100.00
12247;BME280;6186;52.022;4.692;2023-08-07T06:59:14;101669.00;;;15.10;100.00
12247;BME280;6186;52.022;4.692;2023-08-07T07:01:39;101666.19;;;15.15;100.00
12247;BME280;6186;52.022;4.692;2023-08-07T07:04:04;101670.47;;;15.19;100.00
12247;BME280;6186;52.022;4.692;2023-08-07T07:06:29;101670.38;;;15.22;100.00
12247;BME280;6186;52.022;4.692;2023-08-07T07:08:54;101679.91;;;15.29;100.00
12247;BME280;6186;52.022;4.692;2023-08-07T07:11:21;101676.19;;;15.34;100.00
12247;BME280;6186;52.022;4.692;2023-08-07T07:13:46;101675.91;;;15.43;100.00
12247;BME280;6186;52.022;4.692;2023-08-07T07:16:12;101677.38;;;15.53;100.00
12247;BME280;6186;52.022;4.692;2023-08-07T07:18:37;101690.09;;;15.70;100.00
12247;BME280;6186;52.022;4.692;2023-08-07T07:21:02;101685.22;;;15.82;100.00
12247;BME280;6186;52.022;4.692;2023-08-07T07:23:27;101686.66;;;15.92;100.00
12247;BME280;6186;52.022;4.692;2023-08-07T07:25:53;101687.38;;;15.97;100.00
12247;BME280;6186;52.022;4.692;2023-08-07T07:28:18;101688.13;;;16.01;100.00
12247;BME280;6186;52.022;4.692;2023-08-07T07:30:43;101690.72;;;16.04;100.00
12247;BME280;6186;52.022;4.692;2023-08-07T07:33:08;101693.91;;;16.14;100.00
12247;BME280;6186;52.022;4.692;2023-08-07T07:35:37;101687.41;;;16.22;100.00
12247;BME280;6186;52.022;4.692;2023-08-07T07:38:03;101694.56;;;16.20;100.00
12247;BME280;6186;52.022;4.692;2023-08-07T07:40:28;101696.31;;;16.21;100.00
12247;BME280;6186;52.022;4.692;2023-08-07T07:42:53;101696.91;;;16.29;100.00
12247;BME280;6186;52.022;4.692;2023-08-07T07:45:18;101700.94;;;16.41;100.00
12247;BME280;6186;52.022;4.692;2023-08-07T07:47:43;101703.09;;;16.54;100.00
12247;BME280;6186;52.022;4.692;2023-08-07T07:50:09;101714.72;;;16.76;100.00
12247;BME280;6186;52.022;4.692;2023-08-07T07:52:34;101713.34;;;16.89;100.00
12247;BME280;6186;52.022;4.692;2023-08-07T07:55:00;101715.59;;;17.00;100.00
12247;BME280;6186;52.022;4.692;2023-08-07T07:57:25;101718.97;;;17.05;100.00
12247;BME280;6186;52.022;4.692;2023-08-07T07:59:50;101717.09;;;17.07;100.00
12247;BME280;6186;52.022;4.692;2023-08-07T08:02:15;101710.69;;;17.13;100.00
12247;BME280;6186;52.022;4.692;2023-08-07T08:04:41;101716.34;;;17.27;100.00
12247;BME280;6186;52.022;4.692;2023-08-07T08:07:06;101721.34;;;17.34;100.00
12247;BME280;6186;52.022;4.692;2023-08-07T08:09:31;101726.28;;;17.45;100.00
12247;BME280;6186;52.022;4.692;2023-08-07T08:11:57;101724.81;;;17.59;100.00
12247;BME280;6186;52.022;4.692;2023-08-07T08:14:22;101727.84;;;17.72;100.00
12247;BME280;6186;52.022;4.692;2023-08-07T08:16:47;101735.28;;;17.85;100.00
12247;BME280;6186;52.022;4.692;2023-08-07T08:19:12;101746.28;;;17.98;100.00
12247;BME280;6186;52.022;4.692;2023-08-07T08:21:37;101749.25;;;18.12;100.00
12247;BME280;6186;52.022;4.692;2023-08-07T08:24:03;101734.75;;;18.19;100.00
12247;BME280;6186;52.022;4.692;2023-08-07T08:26:28;101741.81;;;18.20;100.00
12247;BME280;6186;52.022;4.692;2023-08-07T08:28:53;101754.53;;;18.14;100.00
12247;BME280;6186;52.022;4.692;2023-08-07T08:31:19;101754.84;;;18.06;100.00
12247;BME280;6186;52.022;4.692;2023-08-07T08:33:44;101759.75;;;18.17;100.00
12247;BME280;6186;52.022;4.692;2023-08-07T08:36:09;101757.41;;;18.29;100.00
12247;BME280;6186;52.022;4.692;2023-08-07T08:38:34;101757.03;;;18.38;100.00
12247;BME280;6186;52.022;4.692;2023-08-07T08:41:02;101759.72;;;18.58;100.00
12247;BME280;6186;52.022;4.692;2023-08-07T08:43:29;101753.78;;;18.72;100.00
12247;BME280;6186;52.022;4.692;2023-08-07T08:45:59;101769.19;;;18.86;100.00
12247;BME280;6186;52.022;4.692;2023-08-07T08:48:26;101757.81;;;19.01;100.00
12247;BME280;6186;52.022;4.692;2023-08-07T08:50:52;101770.47;;;19.16;100.00
12247;BME280;6186;52.022;4.692;2023-08-07T08:53:20;101763.06;;;19.22;100.00
12247;BME280;6186;52.022;4.692;2023-08-07T08:55:45;101762.31;;;19.39;100.00
12247;BME280;6186;52.022;4.692;2023-08-07T08:58:11;101762.22;;;19.59;100.00
12247;BME280;6186;52.022;4.692;2023-08-07T09:00:36;101771.94;;;19.79;100.00
12247;BME280;6186;52.022;4.692;2023-08-07T09:03:02;101774.75;;;19.94;100.00
12247;BME280;6186;52.022;4.692;2023-08-07T09:05:27;101774.47;;;20.00;100.00
12247;BME280;6186;52.022;4.692;2023-08-07T09:07:53;101774.00;;;20.09;100.00
12247;BME280;6186;52.022;4.692;2023-08-07T09:10:19;101769.94;;;20.19;100.00
12247;BME280;6186;52.022;4.692;2023-08-07T09:12:53;101759.34;;;20.35;100.00
12247;BME280;6186;52.022;4.692;2023-08-07T09:15:19;101766.75;;;20.30;100.00
12247;BME280;6186;52.022;4.692;2023-08-07T09:17:45;101778.03;;;20.18;100.00
12247;BME280;6186;52.022;4.692;2023-08-07T09:20:11;101780.72;;;20.18;100.00
12247;BME280;6186;52.022;4.692;2023-08-07T09:22:36;101787.63;;;20.22;100.00
12247;BME280;6186;52.022;4.692;2023-08-07T09:25:01;101783.97;;;20.41;100.00
12247;BME280;6186;52.022;4.692;2023-08-07T09:27:27;101791.84;;;20.61;100.00
12247;BME280;6186;52.022;4.692;2023-08-07T09:29:54;101787.88;;;20.69;100.00
12247;BME280;6186;52.022;4.692;2023-08-07T09:32:20;101787.66;;;20.73;100.00
12247;BME280;6186;52.022;4.692;2023-08-07T09:34:45;101789.25;;;20.60;100.00
12247;BME280;6186;52.022;4.692;2023-08-07T09:37:10;101793.97;;;20.38;100.00
12247;BME280;6186;52.022;4.692;2023-08-07T09:39:36;101791.19;;;20.22;100.00
12247;BME280;6186;52.022;4.692;2023-08-07T09:42:05;101794.34;;;20.30;100.00
12247;BME280;6186;52.022;4.692;2023-08-07T09:44:37;101793.81;;;20.58;100.00
12247;BME280;6186;52.022;4.692;2023-08-07T09:47:16;101795.13;;;20.84;100.00
12247;BME280;6186;52.022;4.692;2023-08-07T09:49:42;101786.47;;;20.79;100.00
12247;BME280;6186;52.022;4.692;2023-08-07T09:52:09;101795.69;;;20.73;100.00
12247;BME280;6186;52.022;4.692;2023-08-07T09:54:35;101796.22;;;20.97;100.00
12247;BME280;6186;52.022;4.692;2023-08-07T09:57:02;101800.50;;;21.33;100.00
12247;BME280;6186;52.022;4.692;2023-08-07T09:59:27;101800.28;;;21.53;100.00
12247;BME280;6186;52.022;4.692;2023-08-07T10:01:54;101798.50;;;21.85;100.00
12247;BME280;6186;52.022;4.692;2023-08-07T10:04:20;101801.22;;;22.15;100.00
12247;BME280;6186;52.022;4.692;2023-08-07T10:06:46;101807.41;;;22.46;100.00
12247;BME280;6186;52.022;4.692;2023-08-07T10:09:12;101815.94;;;22.69;100.00
12247;BME280;6186;52.022;4.692;2023-08-07T10:11:38;101807.50;;;22.61;100.00
12247;BME280;6186;52.022;4.692;2023-08-07T10:14:04;101787.16;;;22.57;100.00
12247;BME280;6186;52.022;4.692;2023-08-07T10:16:30;101796.66;;;22.62;100.00
12247;BME280;6186;52.022;4.692;2023-08-07T10:18:55;101805.00;;;22.58;100.00
12247;BME280;6186;52.022;4.692;2023-08-07T10:21:22;101802.44;;;22.55;100.00
12247;BME280;6186;52.022;4.692;2023-08-07T10:23:52;101807.69;;;22.58;100.00
12247;BME280;6186;52.022;4.692;2023-08-07T10:26:18;101807.91;;;22.69;100.00
12247;BME280;6186;52.022;4.692;2023-08-07T10:28:45;101810.22;;;22.75;100.00
12247;BME280;6186;52.022;4.692;2023-08-07T10:31:12;101814.03;;;22.71;100.00
12247;BME280;6186;52.022;4.692;2023-08-07T10:33:40;101817.63;;;22.85;100.00
12247;BME280;6186;52.022;4.692;2023-08-07T10:36:10;101821.97;;;23.16;100.00
12247;BME280;6186;52.022;4.692;2023-08-07T10:38:36;101808.28;;;23.34;100.00
12247;BME280;6186;52.022;4.692;2023-08-07T10:43:28;101822.59;;;23.35;100.00
12247;BME280;6186;52.022;4.692;2023-08-07T10:45:59;101813.34;;;23.25;100.00
12247;BME280;6186;52.022;4.692;2023-08-07T10:48:27;101808.50;;;23.31;100.00
12247;BME280;6186;52.022;4.692;2023-08-07T10:51:03;101814.34;;;23.52;100.00
12247;BME280;6186;52.022;4.692;2023-08-07T10:55:57;101813.38;;;23.53;100.00
12247;BME280;6186;52.022;4.692;2023-08-07T10:58:37;101826.91;;;23.52;100.00
12247;BME280;6186;52.022;4.692;2023-08-07T11:03:43;101824.94;;;23.82;100.00
12247;BME280;6186;52.022;4.692;2023-08-07T11:06:11;101822.59;;;24.04;100.00
12247;BME280;6186;52.022;4.692;2023-08-07T11:08:37;101828.50;;;24.23;100.00
12247;BME280;6186;52.022;4.692;2023-08-07T11:11:06;101828.00;;;24.31;100.00
12247;BME280;6186;52.022;4.692;2023-08-07T11:13:33;101829.28;;;24.25;100.00
12247;BME280;6186;52.022;4.692;2023-08-07T11:15:58;101824.53;;;24.28;100.00
12247;BME280;6186;52.022;4.692;2023-08-07T11:18:24;101830.66;;;24.45;100.00
12247;BME280;6186;52.022;4.692;2023-08-07T11:20:50;101824.97;;;24.62;100.00
12247;BME280;6186;52.022;4.692;2023-08-07T11:23:15;101819.00;;;24.83;100.00
12247;BME280;6186;52.022;4.692;2023-08-07T11:25:41;101831.22;;;25.14;100.00
12247;BME280;6186;52.022;4.692;2023-08-07T11:28:07;101826.78;;;25.38;100.00
12247;BME280;6186;52.022;4.692;2023-08-07T11:30:32;101818.81;;;25.37;100.00
12247;BME280;6186;52.022;4.692;2023-08-07T11:32:57;101824.31;;;25.35;100.00
12247;BME280;6186;52.022;4.692;2023-08-07T11:35:22;101837.16;;;24.94;100.00
12247;BME280;6186;52.022;4.692;2023-08-07T11:37:48;101829.56;;;24.47;100.00
12247;BME280;6186;52.022;4.692;2023-08-07T11:40:13;101841.16;;;24.35;100.00
12247;BME280;6186;52.022;4.692;2023-08-07T11:42:40;101831.28;;;24.36;100.00
12247;BME280;6186;52.022;4.692;2023-08-07T11:45:06;101827.94;;;24.45;100.00
12247;BME280;6186;52.022;4.692;2023-08-07T11:47:32;101827.22;;;24.55;100.00
12247;BME280;6186;52.022;4.692;2023-08-07T11:49:58;101843.19;;;24.71;100.00
12247;BME280;6186;52.022;4.692;2023-08-07T11:52:23;101828.94;;;24.83;100.00
12247;BME280;6186;52.022;4.692;2023-08-07T11:54:48;101834.22;;;24.84;100.00
12247;BME280;6186;52.022;4.692;2023-08-07T11:57:18;101835.44;;;24.66;100.00
12247;BME280;6186;52.022;4.692;2023-08-07T11:59:47;101833.88;;;24.50;100.00
12247;BME280;6186;52.022;4.692;2023-08-07T12:02:12;101841.41;;;24.45;100.00
12247;BME280;6186;52.022;4.692;2023-08-07T12:04:38;101834.25;;;24.31;100.00
12247;BME280;6186;52.022;4.692;2023-08-07T12:07:03;101828.84;;;24.18;100.00
12247;BME280;6186;52.022;4.692;2023-08-07T12:09:30;101834.22;;;24.18;100.00
12247;BME280;6186;52.022;4.692;2023-08-07T12:11:58;101843.59;;;24.25;100.00
12247;BME280;6186;52.022;4.692;2023-08-07T12:14:30;101835.66;;;24.10;100.00
12247;BME280;6186;52.022;4.692;2023-08-07T12:16:56;101837.19;;;24.00;100.00
12247;BME280;6186;52.022;4.692;2023-08-07T12:19:21;101834.59;;;23.98;100.00
12247;BME280;6186;52.022;4.692;2023-08-07T12:21:46;101831.91;;;23.98;100.00
12247;BME280;6186;52.022;4.692;2023-08-07T12:24:12;101828.88;;;24.04;100.00
12247;BME280;6186;52.022;4.692;2023-08-07T12:26:38;101830.88;;;24.01;100.00
12247;BME280;6186;52.022;4.692;2023-08-07T12:29:03;101823.31;;;23.79;100.00
12247;BME280;6186;52.022;4.692;2023-08-07T12:31:29;101829.06;;;23.73;100.00
12247;BME280;6186;52.022;4.692;2023-08-07T12:33:54;101822.19;;;23.69;100.00
12247;BME280;6186;52.022;4.692;2023-08-07T12:36:19;101822.09;;;23.71;100.00
12247;BME280;6186;52.022;4.692;2023-08-07T12:38:45;101831.00;;;23.85;100.00
12247;BME280;6186;52.022;4.692;2023-08-07T12:41:10;101834.47;;;24.01;100.00
12247;BME280;6186;52.022;4.692;2023-08-07T12:43:35;101828.28;;;23.99;100.00
12247;BME280;6186;52.022;4.692;2023-08-07T12:46:00;101825.78;;;24.10;100.00
12247;BME280;6186;52.022;4.692;2023-08-07T12:48:25;101835.06;;;24.19;100.00
12247;BME280;6186;52.022;4.692;2023-08-07T12:50:51;101823.09;;;24.37;100.00
12247;BME280;6186;52.022;4.692;2023-08-07T12:53:16;101834.38;;;24.30;100.00
12247;BME280;6186;52.022;4.692;2023-08-07T12:55:41;101820.78;;;24.04;100.00